AAL38 KMIA-EGLL
Flight info
| Callsign | AAL38 |
|---|---|
| Flight time | N/A |
| Altitude | 35000 |
| Route | FOLZZ3 SNAGY/M083F350 DCT ONGOT DCT DRYED M201 CARAC/N0491F350 DCT PORTI/M083F370 DCT 47N050W 49N040W 51N030W 52N020W DCT LIMRI DCT XETBO/N0464F370 DCT EVRIN DCT JETZI DCT AMFUL DCT ORZEB/N0389F230 P2 SIRIC |
| Aircraft | B77W/H-SDE1E2E3FGHIJ2J3J4J5M1RWXY/LB1D1 |
Departure
| Time | 2026-05-04 11:37 |
|---|---|
| Airport | Miami International Airport (KMIA) |
Arrival
| Time | N/A |
|---|---|
| Airport | London Heathrow Airport (EGLL) |
| Time | Latitude | Longitude | Altitude | Speed | Heading |
|---|---|---|---|---|---|
| 2026-05-04 11:12 | 25.79797 | -80.27836 | 23 ft | 0 kts | 178° |
| 2026-05-04 11:27 | 25.79883 | -80.27879 | 27 ft | 0 kts | 87° |
| 2026-05-04 11:31 | 25.79916 | -80.27764 | 28 ft | 8 kts | 19° |
| 2026-05-04 11:33 | 25.79995 | -80.27293 | 32 ft | 11 kts | 88° |
| 2026-05-04 11:33 | 25.79998 | -80.27215 | 32 ft | 4 kts | 87° |
| 2026-05-04 11:33 | 25.79998 | -80.27214 | 32 ft | 0 kts | 87° |
| 2026-05-04 11:34 | 25.79998 | -80.27213 | 32 ft | 1 kts | 87° |
| 2026-05-04 11:35 | 25.79999 | -80.27198 | 32 ft | 3 kts | 87° |
| 2026-05-04 11:35 | 25.80000 | -80.27172 | 32 ft | 5 kts | 88° |
| 2026-05-04 11:35 | 25.80020 | -80.27117 | 31 ft | 9 kts | 52° |
| 2026-05-04 11:35 | 25.80071 | -80.27047 | 30 ft | 15 kts | 53° |
| 2026-05-04 11:36 | 25.80170 | -80.26971 | 31 ft | 17 kts | 3° |
| 2026-05-04 11:36 | 25.80203 | -80.27020 | 31 ft | 3 kts | 263° |
| 2026-05-04 11:36 | 25.80189 | -80.27217 | 28 ft | 68 kts | 268° |
| 2026-05-04 11:36 | 25.80156 | -80.28112 | 25 ft | 159 kts | 268° |
| 2026-05-04 11:37 | 25.80090 | -80.29522 | 323 ft | 198 kts | 268° |
| 2026-05-04 11:37 | 25.80041 | -80.30984 | 826 ft | 183 kts | 273° |
| 2026-05-04 11:37 | 25.80166 | -80.32442 | 937 ft | 207 kts | 280° |
| 2026-05-04 11:37 | 25.80375 | -80.34173 | 1291 ft | 239 kts | 275° |
| 2026-05-04 11:38 | 25.80303 | -80.35976 | 2396 ft | 230 kts | 258° |
| 2026-05-04 11:38 | 25.79971 | -80.37744 | 2912 ft | 243 kts | 269° |
| 2026-05-04 11:38 | 25.80290 | -80.39613 | 3331 ft | 255 kts | 299° |
| 2026-05-04 11:38 | 25.81524 | -80.41026 | 3901 ft | 260 kts | 321° |
| 2026-05-04 11:39 | 25.82883 | -80.42360 | 4734 ft | 262 kts | 313° |
| 2026-05-04 11:39 | 25.84229 | -80.43712 | 5544 ft | 264 kts | 327° |
| 2026-05-04 11:40 | 25.95419 | -80.42879 | 9789 ft | 306 kts | 43° |
| 2026-05-04 11:41 | 25.96550 | -80.40833 | 10340 ft | 321 kts | 70° |
| 2026-05-04 11:41 | 25.97117 | -80.38342 | 10561 ft | 345 kts | 76° |
| 2026-05-04 11:41 | 25.97648 | -80.35651 | 10747 ft | 369 kts | 76° |
| 2026-05-04 11:41 | 25.98236 | -80.32767 | 10915 ft | 394 kts | 75° |
| 2026-05-04 11:42 | 25.98870 | -80.29733 | 11343 ft | 407 kts | 76° |
| 2026-05-04 11:42 | 25.99256 | -80.26568 | 11795 ft | 419 kts | 86° |
| 2026-05-04 11:42 | 25.99339 | -80.23331 | 12485 ft | 427 kts | 89° |
| 2026-05-04 11:42 | 25.99358 | -80.19986 | 13230 ft | 434 kts | 89° |
| 2026-05-04 11:43 | 25.99426 | -80.16641 | 13914 ft | 441 kts | 88° |
| 2026-05-04 11:43 | 25.99547 | -80.13191 | 14530 ft | 448 kts | 88° |
| 2026-05-04 11:43 | 25.99761 | -80.09722 | 15212 ft | 452 kts | 82° |
| 2026-05-04 11:43 | 26.00432 | -80.06282 | 15873 ft | 457 kts | 74° |
| 2026-05-04 11:44 | 26.01308 | -80.02858 | 16529 ft | 462 kts | 73° |
| 2026-05-04 11:44 | 26.02201 | -79.99447 | 17186 ft | 466 kts | 73° |
| 2026-05-04 11:44 | 26.03094 | -79.95938 | 17861 ft | 471 kts | 74° |
| 2026-05-04 11:44 | 26.03957 | -79.92405 | 18477 ft | 476 kts | 75° |
| 2026-05-04 11:45 | 26.04795 | -79.88862 | 19027 ft | 481 kts | 75° |
| 2026-05-04 11:45 | 26.05634 | -79.85246 | 19618 ft | 484 kts | 75° |
| 2026-05-04 11:45 | 26.06477 | -79.81589 | 20204 ft | 488 kts | 75° |
| 2026-05-04 11:45 | 26.07324 | -79.77912 | 20780 ft | 491 kts | 75° |
| 2026-05-04 11:46 | 26.08176 | -79.74213 | 21406 ft | 494 kts | 75° |
| 2026-05-04 11:46 | 26.09023 | -79.70546 | 21970 ft | 498 kts | 75° |
| 2026-05-04 11:46 | 26.09891 | -79.66794 | 22501 ft | 503 kts | 74° |
| 2026-05-04 11:46 | 26.10953 | -79.63082 | 23009 ft | 505 kts | 63° |
| 2026-05-04 11:47 | 26.12785 | -79.59758 | 23438 ft | 501 kts | 50° |
| 2026-05-04 11:47 | 26.14900 | -79.56659 | 23795 ft | 506 kts | 49° |
| 2026-05-04 11:47 | 26.17036 | -79.53522 | 24208 ft | 510 kts | 49° |
| 2026-05-04 11:47 | 26.19142 | -79.50386 | 24656 ft | 512 kts | 49° |
| 2026-05-04 11:48 | 26.21251 | -79.47139 | 25005 ft | 520 kts | 51° |
| 2026-05-04 11:48 | 26.23323 | -79.43804 | 25438 ft | 523 kts | 51° |
| 2026-05-04 11:48 | 26.25380 | -79.40491 | 25873 ft | 526 kts | 51° |
| 2026-05-04 11:48 | 26.27490 | -79.37142 | 26326 ft | 529 kts | 50° |
| 2026-05-04 11:49 | 26.29866 | -79.34031 | 26721 ft | 524 kts | 36° |
| 2026-05-04 11:49 | 26.32805 | -79.31711 | 27051 ft | 514 kts | 25° |
| 2026-05-04 11:49 | 26.35903 | -79.29652 | 27323 ft | 519 kts | 24° |
| 2026-05-04 11:49 | 26.38984 | -79.27605 | 27697 ft | 523 kts | 24° |
| 2026-05-04 11:50 | 26.42114 | -79.25485 | 28155 ft | 525 kts | 25° |
| 2026-05-04 11:50 | 26.45238 | -79.23318 | 28579 ft | 528 kts | 25° |
| 2026-05-04 11:50 | 26.48316 | -79.21146 | 28994 ft | 531 kts | 26° |
| 2026-05-04 11:50 | 26.51437 | -79.18919 | 29332 ft | 534 kts | 26° |
| 2026-05-04 11:51 | 26.54580 | -79.16664 | 29783 ft | 534 kts | 26° |
| 2026-05-04 11:51 | 26.57668 | -79.14442 | 30291 ft | 532 kts | 26° |
| 2026-05-04 11:51 | 26.60786 | -79.12200 | 30739 ft | 530 kts | 26° |
| 2026-05-04 11:51 | 26.63900 | -79.09965 | 31138 ft | 530 kts | 26° |
| 2026-05-04 11:52 | 26.66981 | -79.07756 | 31507 ft | 530 kts | 26° |
| 2026-05-04 11:52 | 26.70095 | -79.05526 | 31875 ft | 530 kts | 26° |
| 2026-05-04 11:52 | 26.73225 | -79.03284 | 32121 ft | 534 kts | 26° |
| 2026-05-04 11:52 | 26.76320 | -79.01066 | 32428 ft | 536 kts | 26° |
| 2026-05-04 11:53 | 26.79473 | -78.98801 | 32791 ft | 535 kts | 26° |
| 2026-05-04 11:53 | 26.82609 | -78.96545 | 33195 ft | 534 kts | 26° |
| 2026-05-04 11:53 | 26.85740 | -78.94291 | 33578 ft | 533 kts | 26° |
| 2026-05-04 11:53 | 26.88829 | -78.92067 | 33917 ft | 533 kts | 26° |
| 2026-05-04 11:55 | 27.10795 | -78.76213 | 35006 ft | 536 kts | 26° |
| 2026-05-04 11:56 | 27.17047 | -78.71679 | 35019 ft | 532 kts | 26° |
| 2026-05-04 11:56 | 27.23230 | -78.67196 | 34993 ft | 532 kts | 26° |
| 2026-05-04 11:57 | 27.29486 | -78.62653 | 35027 ft | 535 kts | 26° |
| 2026-05-04 11:57 | 27.35710 | -78.58068 | 35039 ft | 539 kts | 27° |
| 2026-05-04 11:58 | 27.41998 | -78.53382 | 35030 ft | 542 kts | 27° |
| 2026-05-04 11:58 | 27.48283 | -78.48688 | 35032 ft | 544 kts | 27° |
| 2026-05-04 11:59 | 27.54594 | -78.43975 | 35028 ft | 544 kts | 27° |
| 2026-05-04 11:59 | 27.60873 | -78.39283 | 35078 ft | 543 kts | 27° |
| 2026-05-04 12:00 | 27.67187 | -78.34561 | 35050 ft | 544 kts | 27° |
| 2026-05-04 12:00 | 27.73507 | -78.29833 | 35062 ft | 551 kts | 27° |
| 2026-05-04 12:01 | 27.79926 | -78.25018 | 35049 ft | 553 kts | 27° |
| 2026-05-04 12:02 | 28.02267 | -78.08196 | 35059 ft | 549 kts | 27° |
| 2026-05-04 12:03 | 28.07545 | -78.04212 | 35066 ft | 547 kts | 27° |
| 2026-05-04 12:03 | 28.13884 | -77.99421 | 35135 ft | 546 kts | 27° |
| 2026-05-04 12:04 | 28.20185 | -77.94655 | 35058 ft | 548 kts | 27° |
| 2026-05-04 12:04 | 28.26551 | -77.89831 | 35086 ft | 551 kts | 27° |
| 2026-05-04 12:05 | 28.32961 | -77.84965 | 35085 ft | 554 kts | 27° |
| 2026-05-04 12:05 | 28.39364 | -77.80096 | 35086 ft | 557 kts | 27° |
| 2026-05-04 12:06 | 28.45834 | -77.75168 | 35095 ft | 560 kts | 27° |
| 2026-05-04 12:06 | 28.52270 | -77.70258 | 35091 ft | 559 kts | 27° |
| 2026-05-04 12:07 | 28.58733 | -77.65318 | 35087 ft | 557 kts | 27° |
| 2026-05-04 12:07 | 28.65132 | -77.60423 | 35088 ft | 556 kts | 27° |
| 2026-05-04 12:08 | 28.73499 | -77.54015 | 35102 ft | 556 kts | 28° |
| 2026-05-04 12:08 | 28.86281 | -77.44197 | 35110 ft | 557 kts | 28° |
| 2026-05-04 12:09 | 28.99162 | -77.34271 | 35145 ft | 558 kts | 28° |
| 2026-05-04 12:09 | 29.12008 | -77.24342 | 35107 ft | 558 kts | 28° |
| 2026-05-04 12:10 | 29.24889 | -77.14356 | 35158 ft | 558 kts | 28° |
| 2026-05-04 12:10 | 29.37732 | -77.04366 | 35129 ft | 560 kts | 29° |
| 2026-05-04 12:11 | 29.50583 | -76.94333 | 35181 ft | 560 kts | 28° |
| 2026-05-04 12:11 | 29.63438 | -76.84094 | 35084 ft | 563 kts | 34° |
| 2026-05-04 12:12 | 29.74398 | -76.73179 | 35248 ft | 565 kts | 38° |
| 2026-05-04 12:12 | 29.82943 | -76.64592 | 35183 ft | 566 kts | 36° |
| 2026-05-04 12:14 | 30.27102 | -76.20903 | 35241 ft | 573 kts | 37° |
| 2026-05-04 12:15 | 30.41640 | -76.06404 | 35143 ft | 575 kts | 38° |
| 2026-05-04 12:15 | 30.65914 | -75.82048 | 35199 ft | 576 kts | 38° |
| 2026-05-04 12:16 | 30.90295 | -75.57417 | 35186 ft | 579 kts | 38° |
| 2026-05-04 12:16 | 31.14530 | -75.32766 | 35135 ft | 583 kts | 39° |
| 2026-05-04 12:17 | 31.26766 | -75.20247 | 35260 ft | 583 kts | 39° |
| 2026-05-04 12:17 | 31.39008 | -75.07683 | 35172 ft | 585 kts | 39° |
| 2026-05-04 12:17 | 31.63379 | -74.82531 | 35201 ft | 588 kts | 39° |
| 2026-05-04 12:18 | 31.87976 | -74.56961 | 35126 ft | 589 kts | 39° |
| 2026-05-04 12:18 | 32.00230 | -74.44150 | 35269 ft | 585 kts | 39° |
| 2026-05-04 12:18 | 32.12259 | -74.31532 | 35118 ft | 586 kts | 39° |
| 2026-05-04 12:19 | 32.24391 | -74.18753 | 35240 ft | 584 kts | 39° |
| 2026-05-04 12:19 | 32.36576 | -74.05873 | 35186 ft | 584 kts | 39° |
| 2026-05-04 12:19 | 32.60806 | -73.80116 | 35196 ft | 585 kts | 40° |
| 2026-05-04 12:20 | 32.72616 | -73.67489 | 35310 ft | 584 kts | 40° |
| 2026-05-04 12:20 | 32.75903 | -73.63967 | 35251 ft | 586 kts | 40° |
| 2026-05-04 12:20 | 32.83945 | -73.55337 | 35234 ft | 595 kts | 40° |
| 2026-05-04 12:21 | 33.03484 | -73.34264 | 35237 ft | 590 kts | 40° |
| 2026-05-04 12:21 | 33.23609 | -73.12427 | 35209 ft | 584 kts | 40° |
| 2026-05-04 12:22 | 33.47767 | -72.86025 | 35209 ft | 596 kts | 40° |
| 2026-05-04 12:22 | 33.72215 | -72.59085 | 35129 ft | 588 kts | 40° |
| 2026-05-04 12:23 | 33.84769 | -72.45168 | 35186 ft | 583 kts | 40° |
| 2026-05-04 12:23 | 33.97153 | -72.31376 | 35346 ft | 598 kts | 40° |
| 2026-05-04 12:24 | 34.11831 | -72.15003 | 35206 ft | 580 kts | 40° |
| 2026-05-04 12:24 | 34.34902 | -71.89144 | 35224 ft | 596 kts | 40° |
| 2026-05-04 12:25 | 34.49947 | -71.72154 | 35220 ft | 593 kts | 40° |
| 2026-05-04 12:25 | 34.61933 | -71.58557 | 35178 ft | 582 kts | 40° |
| 2026-05-04 12:25 | 34.71681 | -71.47464 | 35219 ft | 584 kts | 40° |
| 2026-05-04 12:26 | 34.80986 | -71.36842 | 35403 ft | 598 kts | 40° |
| 2026-05-04 12:26 | 34.87006 | -71.29941 | 35220 ft | 587 kts | 40° |
| 2026-05-04 12:27 | 35.02692 | -71.11905 | 35211 ft | 576 kts | 40° |
| 2026-05-04 12:27 | 35.20900 | -70.90852 | 35359 ft | 585 kts | 40° |
| 2026-05-04 12:28 | 35.34094 | -70.75504 | 35291 ft | 586 kts | 40° |
| 2026-05-04 12:28 | 35.48996 | -70.58084 | 35235 ft | 588 kts | 41° |
| 2026-05-04 12:29 | 35.72631 | -70.30262 | 35178 ft | 586 kts | 41° |
| 2026-05-04 12:29 | 35.95963 | -70.02558 | 35197 ft | 583 kts | 41° |
| 2026-05-04 12:30 | 36.19276 | -69.74637 | 35187 ft | 582 kts | 41° |
| 2026-05-04 12:30 | 36.42460 | -69.46627 | 35170 ft | 583 kts | 41° |
| 2026-05-04 12:31 | 36.65643 | -69.18370 | 35158 ft | 583 kts | 41° |
| 2026-05-04 12:31 | 36.88678 | -68.90044 | 35159 ft | 585 kts | 41° |
| 2026-05-04 12:32 | 37.23273 | -68.47018 | 35150 ft | 586 kts | 41° |
| 2026-05-04 12:33 | 37.41230 | -68.24450 | 35280 ft | 584 kts | 41° |
| 2026-05-04 12:33 | 37.49261 | -68.14307 | 35176 ft | 586 kts | 41° |
| 2026-05-04 12:33 | 37.56035 | -68.05723 | 35279 ft | 585 kts | 41° |
| 2026-05-04 12:34 | 37.59814 | -68.00924 | 35210 ft | 587 kts | 41° |
| 2026-05-04 12:34 | 37.75387 | -67.81073 | 35189 ft | 587 kts | 41° |
| 2026-05-04 12:35 | 37.98310 | -67.51622 | 35208 ft | 585 kts | 41° |
| 2026-05-04 12:35 | 38.17992 | -67.26111 | 35168 ft | 586 kts | 41° |
| 2026-05-04 12:36 | 38.40633 | -66.96501 | 35132 ft | 585 kts | 41° |
| 2026-05-04 12:36 | 38.63340 | -66.66519 | 35129 ft | 586 kts | 41° |
| 2026-05-04 12:37 | 38.85796 | -66.36415 | 35127 ft | 586 kts | 41° |
| 2026-05-04 12:37 | 39.05570 | -66.09657 | 35221 ft | 584 kts | 41° |
| 2026-05-04 12:38 | 39.15045 | -65.96755 | 35123 ft | 585 kts | 41° |
| 2026-05-04 12:38 | 39.37340 | -65.66175 | 35141 ft | 585 kts | 41° |
| 2026-05-04 12:39 | 39.54470 | -65.42472 | 35184 ft | 583 kts | 41° |
| 2026-05-04 12:39 | 39.60480 | -65.34112 | 35151 ft | 584 kts | 41° |
| 2026-05-04 12:40 | 39.77534 | -65.10266 | 35061 ft | 584 kts | 41° |
| 2026-05-04 12:40 | 39.99491 | -64.79287 | 35060 ft | 583 kts | 41° |
| 2026-05-04 12:41 | 40.21442 | -64.47996 | 35098 ft | 581 kts | 42° |
| 2026-05-04 12:41 | 40.38313 | -64.23729 | 35067 ft | 581 kts | 42° |
| 2026-05-04 12:42 | 40.60088 | -63.92114 | 35054 ft | 580 kts | 42° |
| 2026-05-04 12:42 | 40.78280 | -63.65444 | 35144 ft | 576 kts | 42° |
| 2026-05-04 12:43 | 40.88968 | -63.49666 | 35154 ft | 576 kts | 43° |
| 2026-05-04 12:43 | 41.01144 | -63.31592 | 34973 ft | 576 kts | 43° |
| 2026-05-04 12:43 | 41.11801 | -63.15677 | 35087 ft | 573 kts | 43° |
| 2026-05-04 12:44 | 41.22367 | -62.99822 | 35048 ft | 573 kts | 43° |
| 2026-05-04 12:44 | 41.43295 | -62.68159 | 34988 ft | 569 kts | 44° |
| 2026-05-04 12:45 | 41.64160 | -62.36258 | 35008 ft | 566 kts | 44° |
| 2026-05-04 12:45 | 41.84740 | -62.04453 | 34942 ft | 566 kts | 45° |
| 2026-05-04 12:46 | 42.05146 | -61.72577 | 34920 ft | 563 kts | 45° |
| 2026-05-04 12:46 | 42.25491 | -61.40451 | 34880 ft | 560 kts | 45° |
| 2026-05-04 12:47 | 42.44784 | -61.07816 | 34905 ft | 559 kts | 52° |
| 2026-05-04 12:47 | 42.62687 | -60.73155 | 34826 ft | 558 kts | 52° |
| 2026-05-04 12:48 | 42.80369 | -60.38716 | 34816 ft | 557 kts | 52° |
| 2026-05-04 12:48 | 42.98056 | -60.03860 | 34821 ft | 557 kts | 53° |
| 2026-05-04 12:49 | 43.15506 | -59.68893 | 34770 ft | 558 kts | 53° |
| 2026-05-04 12:49 | 43.32909 | -59.33575 | 34762 ft | 557 kts | 54° |
| 2026-05-04 12:50 | 43.50110 | -58.98248 | 34736 ft | 555 kts | 55° |
| 2026-05-04 12:50 | 43.67114 | -58.62901 | 34713 ft | 554 kts | 55° |
| 2026-05-04 12:51 | 43.81201 | -58.33291 | 34675 ft | 553 kts | 56° |
| 2026-05-04 12:51 | 43.98026 | -57.97528 | 34711 ft | 553 kts | 57° |
| 2026-05-04 12:52 | 44.14663 | -57.61725 | 34677 ft | 554 kts | 57° |
| 2026-05-04 12:52 | 44.31334 | -57.25402 | 34641 ft | 554 kts | 57° |
| 2026-05-04 12:53 | 44.47764 | -56.89147 | 34642 ft | 554 kts | 58° |
| 2026-05-04 12:53 | 44.64207 | -56.52403 | 34631 ft | 554 kts | 59° |
| 2026-05-04 12:54 | 44.78427 | -56.20239 | 34857 ft | 559 kts | 59° |
| 2026-05-04 12:54 | 44.82186 | -56.11675 | 35364 ft | 557 kts | 59° |
| 2026-05-04 12:54 | 44.84196 | -56.07087 | 35714 ft | 554 kts | 59° |
| 2026-05-04 12:54 | 44.86224 | -56.02451 | 36079 ft | 552 kts | 60° |
| 2026-05-04 12:55 | 44.88233 | -55.97850 | 36428 ft | 549 kts | 60° |
| 2026-05-04 12:55 | 44.90570 | -55.92488 | 36556 ft | 553 kts | 60° |
| 2026-05-04 12:55 | 44.93509 | -55.85725 | 36604 ft | 557 kts | 60° |
| 2026-05-04 12:56 | 45.08528 | -55.50938 | 36487 ft | 554 kts | 60° |
| 2026-05-04 12:56 | 45.14407 | -55.37206 | 36506 ft | 542 kts | 61° |
| 2026-05-04 12:57 | 45.24803 | -55.12741 | 36588 ft | 544 kts | 61° |
| 2026-05-04 12:57 | 45.40523 | -54.75355 | 36574 ft | 558 kts | 62° |
| 2026-05-04 12:58 | 45.56158 | -54.37679 | 36568 ft | 539 kts | 62° |
| 2026-05-04 12:58 | 45.71300 | -54.00676 | 36649 ft | 549 kts | 63° |
| 2026-05-04 12:59 | 45.86773 | -53.62369 | 36612 ft | 558 kts | 63° |
| 2026-05-04 12:59 | 46.02009 | -53.24123 | 36560 ft | 540 kts | 64° |
| 2026-05-04 12:59 | 46.09325 | -53.05555 | 36695 ft | 540 kts | 64° |
| 2026-05-04 13:00 | 46.13897 | -52.93888 | 36756 ft | 546 kts | 64° |
| 2026-05-04 13:00 | 46.18398 | -52.82358 | 36727 ft | 552 kts | 65° |
| 2026-05-04 13:00 | 46.21580 | -52.74175 | 36625 ft | 555 kts | 65° |
| 2026-05-04 13:01 | 46.24650 | -52.66262 | 36671 ft | 556 kts | 65° |
| 2026-05-04 13:01 | 46.36847 | -52.34588 | 36730 ft | 556 kts | 66° |
| 2026-05-04 13:02 | 46.49120 | -52.02324 | 36584 ft | 545 kts | 68° |
| 2026-05-04 13:02 | 46.51492 | -51.94782 | 36673 ft | 533 kts | 75° |
| 2026-05-04 13:02 | 46.53418 | -51.87324 | 36668 ft | 530 kts | 77° |
| 2026-05-04 13:03 | 46.58464 | -51.67341 | 36631 ft | 528 kts | 76° |
| 2026-05-04 13:03 | 46.63642 | -51.47129 | 36706 ft | 536 kts | 76° |
| 2026-05-04 13:04 | 46.68837 | -51.26692 | 36725 ft | 545 kts | 76° |
| 2026-05-04 13:04 | 46.73406 | -51.08595 | 36742 ft | 532 kts | 77° |
| 2026-05-04 13:05 | 46.78454 | -50.88383 | 36758 ft | 525 kts | 77° |
| 2026-05-04 13:05 | 46.80432 | -50.80397 | 36655 ft | 529 kts | 77° |
| 2026-05-04 13:05 | 46.82331 | -50.72705 | 36736 ft | 533 kts | 77° |
| 2026-05-04 13:06 | 46.87372 | -50.52200 | 36751 ft | 541 kts | 77° |
| 2026-05-04 13:06 | 46.92424 | -50.31491 | 36702 ft | 533 kts | 78° |
| 2026-05-04 13:07 | 46.97279 | -50.11369 | 36760 ft | 522 kts | 78° |
| 2026-05-04 13:07 | 47.02140 | -49.91318 | 36713 ft | 523 kts | 78° |
| 2026-05-04 13:08 | 47.06847 | -49.72704 | 36752 ft | 525 kts | 78° |
| 2026-05-04 13:08 | 47.11889 | -49.52451 | 36742 ft | 527 kts | 78° |
| 2026-05-04 13:09 | 47.16843 | -49.32322 | 36795 ft | 526 kts | 78° |
| 2026-05-04 13:09 | 47.21794 | -49.12032 | 36806 ft | 524 kts | 78° |
| 2026-05-04 13:10 | 47.26650 | -48.91944 | 36760 ft | 524 kts | 78° |
| 2026-05-04 13:10 | 47.31493 | -48.71736 | 36776 ft | 520 kts | 78° |
| 2026-05-04 13:11 | 47.36250 | -48.51702 | 36802 ft | 517 kts | 79° |
| 2026-05-04 13:11 | 47.40947 | -48.31729 | 36760 ft | 515 kts | 79° |
| 2026-05-04 13:12 | 47.45608 | -48.11737 | 36831 ft | 512 kts | 79° |
| 2026-05-04 13:12 | 47.50191 | -47.91884 | 36820 ft | 511 kts | 78° |
| 2026-05-04 13:13 | 47.54735 | -47.72018 | 36817 ft | 513 kts | 78° |
| 2026-05-04 13:13 | 47.59306 | -47.51853 | 36820 ft | 516 kts | 78° |
| 2026-05-04 13:14 | 47.63835 | -47.31683 | 36826 ft | 518 kts | 78° |
| 2026-05-04 13:14 | 47.68370 | -47.11293 | 36836 ft | 520 kts | 78° |
| 2026-05-04 13:15 | 47.72858 | -46.90914 | 36874 ft | 521 kts | 78° |
| 2026-05-04 13:15 | 47.77353 | -46.70298 | 36832 ft | 526 kts | 78° |
| 2026-05-04 13:16 | 47.81817 | -46.49624 | 36883 ft | 528 kts | 77° |
| 2026-05-04 13:16 | 47.86302 | -46.28640 | 36860 ft | 531 kts | 77° |
| 2026-05-04 13:17 | 47.90728 | -46.07722 | 36899 ft | 532 kts | 77° |
| 2026-05-04 13:17 | 47.95165 | -45.86532 | 36900 ft | 534 kts | 77° |
| 2026-05-04 13:18 | 47.99542 | -45.65401 | 36929 ft | 535 kts | 77° |
| 2026-05-04 13:18 | 48.03887 | -45.44206 | 36931 ft | 536 kts | 77° |
| 2026-05-04 13:19 | 48.08232 | -45.22778 | 36945 ft | 538 kts | 77° |
| 2026-05-04 13:19 | 48.12546 | -45.01272 | 36942 ft | 539 kts | 76° |
| 2026-05-04 13:20 | 48.16172 | -44.83012 | 37003 ft | 538 kts | 76° |
| 2026-05-04 13:20 | 48.20337 | -44.61819 | 36989 ft | 539 kts | 76° |
| 2026-05-04 13:21 | 48.24556 | -44.40114 | 37010 ft | 540 kts | 76° |
| 2026-05-04 13:21 | 48.28694 | -44.18583 | 37025 ft | 540 kts | 76° |
| 2026-05-04 13:22 | 48.32820 | -43.96858 | 37041 ft | 539 kts | 75° |
| 2026-05-04 13:22 | 48.36881 | -43.75239 | 37042 ft | 539 kts | 75° |
| 2026-05-04 13:23 | 48.40926 | -43.53446 | 37076 ft | 537 kts | 75° |
| 2026-05-04 13:23 | 48.44884 | -43.31877 | 37071 ft | 536 kts | 75° |
| 2026-05-04 13:24 | 48.48819 | -43.10170 | 37096 ft | 535 kts | 75° |
| 2026-05-04 13:24 | 48.52685 | -42.88591 | 37101 ft | 534 kts | 75° |
| 2026-05-04 13:25 | 48.55993 | -42.69927 | 37062 ft | 511 kts | 74° |
| 2026-05-04 13:25 | 48.56886 | -42.64854 | 37080 ft | 497 kts | 74° |
| 2026-05-04 13:25 | 48.57759 | -42.59873 | 37102 ft | 483 kts | 74° |
| 2026-05-04 13:25 | 48.58609 | -42.55009 | 37095 ft | 476 kts | 74° |
| 2026-05-04 13:26 | 48.60310 | -42.45256 | 37142 ft | 489 kts | 74° |
| 2026-05-04 13:26 | 48.62057 | -42.35173 | 37148 ft | 502 kts | 75° |
| 2026-05-04 13:27 | 48.63832 | -42.24864 | 37149 ft | 514 kts | 74° |
| 2026-05-04 13:27 | 48.67135 | -42.05535 | 37151 ft | 532 kts | 74° |
| 2026-05-04 13:28 | 48.70823 | -41.83680 | 37196 ft | 540 kts | 73° |
| 2026-05-04 13:28 | 48.74059 | -41.64262 | 37179 ft | 524 kts | 73° |
| 2026-05-04 13:29 | 48.77552 | -41.43074 | 37183 ft | 520 kts | 73° |
| 2026-05-04 13:29 | 48.81057 | -41.21558 | 37222 ft | 529 kts | 73° |
| 2026-05-04 13:30 | 48.84550 | -40.99812 | 37221 ft | 534 kts | 73° |
| 2026-05-04 13:30 | 48.88005 | -40.77998 | 37185 ft | 524 kts | 73° |
| 2026-05-04 13:31 | 48.91147 | -40.57927 | 37239 ft | 515 kts | 73° |
| 2026-05-04 13:31 | 48.94423 | -40.36753 | 37251 ft | 519 kts | 72° |
| 2026-05-04 13:32 | 48.97720 | -40.15130 | 37256 ft | 527 kts | 73° |
| 2026-05-04 13:32 | 49.00838 | -39.96265 | 37230 ft | 519 kts | 64° |
| 2026-05-04 13:33 | 49.05980 | -39.76063 | 37248 ft | 505 kts | 63° |
| 2026-05-04 13:33 | 49.10966 | -39.56217 | 37250 ft | 504 kts | 63° |
| 2026-05-04 13:34 | 49.15933 | -39.36089 | 37340 ft | 509 kts | 63° |
| 2026-05-04 13:34 | 49.20910 | -39.15730 | 37296 ft | 512 kts | 63° |
| 2026-05-04 13:35 | 49.28241 | -38.85386 | 37287 ft | 499 kts | 63° |
| 2026-05-04 13:36 | 49.32983 | -38.65563 | 37311 ft | 499 kts | 63° |
| 2026-05-04 13:36 | 49.37795 | -38.45275 | 37328 ft | 509 kts | 64° |
| 2026-05-04 13:37 | 49.42593 | -38.24810 | 37320 ft | 510 kts | 64° |
| 2026-05-04 13:37 | 49.47322 | -38.04432 | 37337 ft | 501 kts | 64° |
| 2026-05-04 13:38 | 49.51944 | -37.84364 | 37342 ft | 496 kts | 64° |
| 2026-05-04 13:38 | 49.56540 | -37.64244 | 37381 ft | 503 kts | 64° |
| 2026-05-04 13:39 | 49.60111 | -37.48464 | 37361 ft | 511 kts | 64° |
| 2026-05-04 13:39 | 49.64758 | -37.27718 | 37357 ft | 512 kts | 64° |
| 2026-05-04 13:40 | 49.69349 | -37.07009 | 37344 ft | 506 kts | 64° |
| 2026-05-04 13:40 | 49.73869 | -36.86453 | 37351 ft | 503 kts | 65° |
| 2026-05-04 13:41 | 49.78309 | -36.66064 | 37373 ft | 505 kts | 65° |
| 2026-05-04 13:41 | 49.82816 | -36.45164 | 37389 ft | 515 kts | 65° |
| 2026-05-04 13:42 | 49.89546 | -36.13484 | 37363 ft | 511 kts | 65° |
| 2026-05-04 13:42 | 49.93878 | -35.92834 | 37359 ft | 501 kts | 65° |
| 2026-05-04 13:43 | 49.97434 | -35.75756 | 37420 ft | 499 kts | 65° |
| 2026-05-04 13:43 | 50.01721 | -35.54988 | 37463 ft | 508 kts | 65° |
| 2026-05-04 13:44 | 50.04625 | -35.40766 | 37437 ft | 514 kts | 66° |
| 2026-05-04 13:44 | 50.08914 | -35.19536 | 37372 ft | 508 kts | 66° |
| 2026-05-04 13:45 | 50.13064 | -34.98800 | 37396 ft | 500 kts | 66° |
| 2026-05-04 13:45 | 50.17174 | -34.78077 | 37397 ft | 499 kts | 66° |
| 2026-05-04 13:46 | 50.21289 | -34.57106 | 37395 ft | 509 kts | 67° |
| 2026-05-04 13:46 | 50.25409 | -34.35841 | 37404 ft | 515 kts | 67° |
| 2026-05-04 13:47 | 50.29464 | -34.14652 | 37415 ft | 505 kts | 68° |
| 2026-05-04 13:47 | 50.33446 | -33.93648 | 37386 ft | 498 kts | 68° |
| 2026-05-04 13:48 | 50.37360 | -33.72789 | 37438 ft | 501 kts | 69° |
| 2026-05-04 13:48 | 50.41270 | -33.51707 | 37407 ft | 510 kts | 69° |
| 2026-05-04 13:49 | 50.45191 | -33.30294 | 37389 ft | 513 kts | 70° |
| 2026-05-04 13:49 | 50.49068 | -33.08864 | 37405 ft | 504 kts | 71° |
| 2026-05-04 13:50 | 50.52839 | -32.87793 | 37414 ft | 498 kts | 71° |
| 2026-05-04 13:50 | 50.56547 | -32.66851 | 37430 ft | 502 kts | 71° |
| 2026-05-04 13:51 | 50.60292 | -32.45425 | 37407 ft | 511 kts | 72° |